createdAt,value
2022-12-11T00:01:23.199Z,98486.00
2022-12-11T00:03:50.295Z,98487.88
2022-12-11T00:06:21.037Z,98484.13
2022-12-11T00:08:48.141Z,98484.94
2022-12-11T00:11:18.268Z,98486.81
2022-12-11T00:13:45.463Z,98476.28
2022-12-11T00:16:12.825Z,98474.41
2022-12-11T00:18:40.401Z,98482.50
2022-12-11T00:21:10.980Z,98480.03
2022-12-11T00:23:39.521Z,98477.34
2022-12-11T00:26:07.964Z,98485.44
2022-12-11T00:28:35.839Z,98483.81
2022-12-11T00:31:04.924Z,98495.41
2022-12-11T00:33:31.821Z,98490.00
2022-12-11T00:35:58.728Z,98480.03
2022-12-11T00:38:25.826Z,98496.22
2022-12-11T00:40:58.291Z,98487.31
2022-12-11T00:43:25.204Z,98490.00
2022-12-11T00:45:52.335Z,98490.00
2022-12-11T00:48:19.416Z,98493.53
2022-12-11T00:50:46.605Z,98488.38
2022-12-11T00:53:13.735Z,98490.00
2022-12-11T00:55:42.563Z,98489.22
2022-12-11T00:58:12.126Z,98496.47
2022-12-11T01:00:39.284Z,98494.59
2022-12-11T01:03:07.181Z,98497.53
2022-12-11T01:05:34.236Z,98505.63
2022-12-11T01:08:01.984Z,98497.53
2022-12-11T01:10:29.075Z,98500.25
2022-12-11T01:12:58.061Z,98501.28
2022-12-11T01:15:28.748Z,98497.53
2022-12-11T01:17:55.745Z,98496.72
2022-12-11T01:20:23.927Z,98489.69
2022-12-11T01:22:53.866Z,98495.88
2022-12-11T01:25:21.076Z,98494.25
2022-12-11T01:27:51.283Z,98493.19
2022-12-11T01:30:19.748Z,98494.25
2022-12-11T01:32:48.152Z,98495.09
2022-12-11T01:35:15.566Z,98502.13
2022-12-11T01:37:42.490Z,98506.69
2022-12-11T01:40:13.206Z,98508.56
2022-12-11T01:42:40.099Z,98499.66
2022-12-11T01:45:29.668Z,98502.94
2022-12-11T01:48:02.295Z,98498.03
2022-12-11T01:50:31.810Z,98492.38
2022-12-11T01:52:59.149Z,98487.78
2022-12-11T01:55:26.877Z,98497.78
2022-12-11T01:57:54.428Z,98481.34
2022-12-11T02:00:22.099Z,98484.31
2022-12-11T02:02:49.067Z,98489.69
2022-12-11T02:05:17.522Z,98487.78
2022-12-11T02:07:51.562Z,98498.59
2022-12-11T02:10:18.871Z,98495.09
2022-12-11T02:12:54.661Z,98491.56
2022-12-11T02:15:31.350Z,98502.34
2022-12-11T02:18:08.717Z,98495.09
2022-12-11T02:20:42.038Z,98501.28
2022-12-11T02:23:58.838Z,98503.75
2022-12-11T02:26:45.696Z,98503.44
2022-12-11T02:29:20.935Z,98508.81
2022-12-11T02:31:53.787Z,98515.28
2022-12-11T02:34:25.583Z,98518.78
2022-12-11T02:36:57.134Z,98511.28
2022-12-11T02:39:27.067Z,98515.03
2022-12-11T02:41:55.294Z,98509.38
2022-12-11T02:44:27.426Z,98511.28
2022-12-11T02:46:55.500Z,98512.06
2022-12-11T02:49:24.386Z,98506.69
2022-12-11T02:51:52.966Z,98501.28
2022-12-11T02:54:24.870Z,98495.88
2022-12-11T02:56:57.145Z,98492.38
2022-12-11T02:59:30.846Z,98488.88
2022-12-11T03:01:58.485Z,98493.19
2022-12-11T03:04:25.370Z,98490.50
2022-12-11T03:06:56.228Z,98471.59
2022-12-11T03:09:23.121Z,98480.53
2022-12-11T03:11:50.016Z,98479.69
2022-12-11T03:14:16.993Z,98477.00
2022-12-11T03:16:55.714Z,98481.59
2022-12-11T03:19:32.016Z,98475.38
2022-12-11T03:22:03.691Z,98477.00
2022-12-11T03:24:42.695Z,98469.75
2022-12-11T03:27:15.688Z,98462.72
2022-12-11T03:29:52.191Z,98453.78
2022-12-11T03:32:25.685Z,98451.09
2022-12-11T03:34:58.576Z,98448.41
2022-12-11T03:37:31.079Z,98451.09
2022-12-11T03:40:02.392Z,98458.13
2022-12-11T03:42:29.317Z,98464.34
2022-12-11T03:44:59.161Z,98467.28
2022-12-11T03:47:29.889Z,98469.44
2022-12-11T03:49:59.687Z,98466.72
2022-12-11T03:52:29.247Z,98467.53
2022-12-11T03:55:01.100Z,98470.22
2022-12-11T03:57:32.551Z,98469.19
2022-12-11T03:59:59.455Z,98468.91
2022-12-11T04:02:27.673Z,98468.09
2022-12-11T04:04:54.581Z,98472.69
2022-12-11T04:07:21.560Z,98464.59
2022-12-11T04:09:48.408Z,98467.28
2022-12-11T04:12:15.296Z,98473.25
2022-12-11T04:15:00.502Z,98468.91
2022-12-11T04:17:47.542Z,98478.06
2022-12-11T04:20:33.020Z,98471.88
2022-12-11T04:23:18.267Z,98457.56
2022-12-11T04:25:45.228Z,98461.34
2022-12-11T04:28:12.112Z,98462.97
2022-12-11T04:30:39.056Z,98460.00
2022-12-11T04:33:07.407Z,98455.69
2022-12-11T04:35:34.286Z,98464.34
2022-12-11T04:38:01.384Z,98457.06
2022-12-11T04:40:28.342Z,98453.78
2022-12-11T04:42:55.334Z,98457.06
2022-12-11T04:45:22.214Z,98458.13
2022-12-11T04:47:49.062Z,98467.88
2022-12-11T04:50:17.620Z,98470.56
2022-12-11T04:52:44.519Z,98469.75
2022-12-11T04:55:12.609Z,98464.34
2022-12-11T04:57:40.035Z,98458.13
2022-12-11T05:00:09.389Z,98460.56
2022-12-11T05:02:37.093Z,98453.56
2022-12-11T05:05:05.448Z,98461.41
2022-12-11T05:07:33.815Z,98449.78
2022-12-11T05:10:00.672Z,98444.38
2022-12-11T05:12:27.729Z,98432.78
2022-12-11T05:14:54.892Z,98434.41
2022-12-11T05:17:22.497Z,98428.19
2022-12-11T05:19:50.084Z,98426.56
2022-12-11T05:22:17.864Z,98438.19
2022-12-11T05:24:46.244Z,98433.59
2022-12-11T05:27:13.180Z,98427.41
2022-12-11T05:29:40.201Z,98433.59
2022-12-11T05:32:07.086Z,98436.53
2022-12-11T05:34:34.076Z,98445.47
2022-12-11T05:37:02.364Z,98443.59
2022-12-11T05:39:29.411Z,98441.94
2022-12-11T05:41:57.686Z,98439.22
2022-12-11T05:44:24.810Z,98436.53
2022-12-11T05:46:51.875Z,98434.66
2022-12-11T05:49:20.167Z,98433.84
2022-12-11T05:51:47.381Z,98444.63
2022-12-11T05:54:14.315Z,98431.41
2022-12-11T05:56:41.230Z,98435.16
2022-12-11T05:59:09.831Z,98433.28
2022-12-11T06:01:40.980Z,98431.41
2022-12-11T06:04:08.618Z,98434.91
2022-12-11T06:06:36.246Z,98441.38
2022-12-11T06:09:04.842Z,98447.84
2022-12-11T06:11:33.589Z,98439.50
2022-12-11T06:14:01.765Z,98427.06
2022-12-11T06:16:30.121Z,98430.59
2022-12-11T06:18:58.386Z,98424.13
2022-12-11T06:21:27.907Z,98429.50
2022-12-11T06:23:56.849Z,98424.94
2022-12-11T06:26:24.307Z,98425.19
2022-12-11T06:28:51.241Z,98424.13
2022-12-11T06:31:19.125Z,98423.31
2022-12-11T06:33:47.765Z,98417.91
2022-12-11T06:36:16.952Z,98424.13
2022-12-11T06:38:44.016Z,98424.13
2022-12-11T06:41:11.529Z,98420.63
2022-12-11T06:43:40.405Z,98430.34
2022-12-11T06:46:09.058Z,98419.78
2022-12-11T06:48:36.681Z,98421.41
2022-12-11T06:51:08.233Z,98419.78
2022-12-11T06:53:35.522Z,98420.63
2022-12-11T06:56:04.362Z,98427.88
2022-12-11T06:58:31.346Z,98424.38
2022-12-11T07:00:58.227Z,98426.25
2022-12-11T07:03:25.248Z,98427.31
2022-12-11T07:05:53.016Z,98427.06
2022-12-11T07:08:21.339Z,98431.66
2022-12-11T07:10:48.344Z,98430.59
2022-12-11T07:13:15.249Z,98426.03
2022-12-11T07:15:42.093Z,98426.81
2022-12-11T07:18:09.048Z,98427.31
2022-12-11T07:20:35.922Z,98429.75
2022-12-11T07:23:02.786Z,98426.25
2022-12-11T07:25:31.011Z,98411.69
2022-12-11T07:27:57.972Z,98417.09
2022-12-11T07:30:24.825Z,98414.41
2022-12-11T07:32:51.765Z,98410.63
2022-12-11T07:35:19.077Z,98409.00
2022-12-11T07:37:46.070Z,98416.03
2022-12-11T07:40:13.874Z,98419.53
2022-12-11T07:42:46.122Z,98416.25
2022-12-11T07:45:13.695Z,98419.78
2022-12-11T07:47:40.792Z,98420.88
2022-12-11T07:50:08.209Z,98413.56
2022-12-11T07:52:35.198Z,98412.78
2022-12-11T07:55:02.156Z,98411.13
2022-12-11T07:57:29.482Z,98411.13
2022-12-11T07:59:57.798Z,98419.22
2022-12-11T08:02:24.720Z,98419.22
2022-12-11T08:04:51.702Z,98412.19
2022-12-11T08:07:18.660Z,98421.91
2022-12-11T08:09:45.604Z,98413.81
2022-12-11T08:12:13.477Z,98415.72
2022-12-11T08:14:40.379Z,98423.81
2022-12-11T08:17:08.614Z,98431.06
2022-12-11T08:19:35.512Z,98428.63
2022-12-11T08:22:02.415Z,98427.81
2022-12-11T08:24:29.304Z,98425.91
2022-12-11T08:26:56.162Z,98426.16
2022-12-11T08:29:23.045Z,98423.47
2022-12-11T08:31:50.147Z,98436.97
2022-12-11T08:34:18.395Z,98428.06
2022-12-11T08:36:45.436Z,98430.53
2022-12-11T08:39:12.342Z,98429.69
2022-12-11T08:41:39.365Z,98412.69
2022-12-11T08:44:15.989Z,98414.34
2022-12-11T08:46:43.924Z,98412.69
2022-12-11T08:49:10.881Z,98407.28
2022-12-11T08:51:39.228Z,98412.69
2022-12-11T08:54:06.082Z,98406.25
2022-12-11T08:56:32.959Z,98398.16
2022-12-11T08:59:00.968Z,98386.53
2022-12-11T09:01:28.144Z,98381.97
2022-12-11T09:03:56.652Z,98373.25
2022-12-11T09:06:25.445Z,98367.88
2022-12-11T09:08:54.108Z,98368.72
2022-12-11T09:11:23.572Z,98366.81
2022-12-11T09:13:50.693Z,98371.41
2022-12-11T09:16:19.722Z,98372.22
2022-12-11T09:18:48.426Z,98384.03
2022-12-11T09:21:17.306Z,98379.72
2022-12-11T09:23:44.810Z,98381.34
2022-12-11T09:26:15.411Z,98375.75
2022-12-11T09:28:46.197Z,98379.50
2022-12-11T09:31:17.057Z,98385.69
2022-12-11T09:33:44.360Z,98400.03
2022-12-11T09:36:12.185Z,98401.09
2022-12-11T09:38:39.662Z,98393.78
2022-12-11T09:41:38.665Z,98396.50
2022-12-11T09:44:21.845Z,98395.69
2022-12-11T09:46:50.034Z,98391.09
2022-12-11T09:49:33.857Z,98391.94
2022-12-11T09:52:11.179Z,98385.69
2022-12-11T09:54:41.842Z,98385.69
2022-12-11T09:57:20.044Z,98383.00
2022-12-11T10:00:09.142Z,98374.91
2022-12-11T10:02:48.813Z,98388.41
2022-12-11T10:05:26.579Z,98379.50
2022-12-11T10:08:00.801Z,98374.91
2022-12-11T10:10:39.285Z,98367.88
2022-12-11T10:13:17.048Z,98358.72
2022-12-11T10:15:49.522Z,98361.44
2022-12-11T10:18:23.014Z,98357.69
2022-12-11T10:20:52.843Z,98359.78
2022-12-11T10:23:23.368Z,98355.44
2022-12-11T10:25:53.969Z,98352.53
2022-12-11T10:28:22.536Z,98345.50
2022-12-11T10:30:56.861Z,98335.50
2022-12-11T10:33:29.488Z,98348.19
2022-12-11T10:35:58.184Z,98343.84
2022-12-11T10:38:28.434Z,98337.63
2022-12-11T10:40:58.086Z,98333.03
2022-12-11T10:43:46.258Z,98326.84
2022-12-11T10:46:17.520Z,98325.19
2022-12-11T10:48:49.450Z,98327.09
2022-12-11T10:51:16.491Z,98309.00
2022-12-11T10:53:44.708Z,98314.41
2022-12-11T10:56:12.536Z,98307.13
2022-12-11T10:58:49.722Z,98309.84
2022-12-11T11:01:21.288Z,98299.03
2022-12-11T11:03:58.807Z,98298.22
2022-12-11T11:06:26.579Z,98298.22
2022-12-11T11:08:56.083Z,98288.25
2022-12-11T11:11:28.769Z,98285.56
2022-12-11T11:14:14.848Z,98289.09
2022-12-11T11:16:44.850Z,98292.03
2022-12-11T11:19:21.413Z,98291.78
2022-12-11T11:21:51.857Z,98291.53
2022-12-11T11:24:26.730Z,98298.59
2022-12-11T11:27:12.684Z,98301.03
2022-12-11T11:29:42.646Z,98288.59
2022-12-11T11:32:20.091Z,98287.78
2022-12-11T11:34:47.009Z,98286.94
2022-12-11T11:37:25.231Z,98281.00
2022-12-11T11:39:57.854Z,98268.31
2022-12-11T11:42:35.348Z,98271.84
2022-12-11T11:45:11.827Z,98275.34
2022-12-11T11:47:43.266Z,98268.06
2022-12-11T11:50:14.730Z,98270.75
2022-12-11T11:53:01.715Z,98269.13
2022-12-11T11:55:37.876Z,98271.00
2022-12-11T11:58:10.964Z,98270.22
2022-12-11T12:00:39.410Z,98269.13
2022-12-11T12:03:10.840Z,98274.31
2022-12-11T12:05:46.059Z,98268.66
2022-12-11T12:08:17.693Z,98261.38
2022-12-11T12:10:48.544Z,98253.28
2022-12-11T12:13:48.547Z,98257.63
2022-12-11T12:16:51.737Z,98264.91
2022-12-11T12:19:18.823Z,98254.09
2022-12-11T12:21:51.167Z,98259.25
2022-12-11T12:24:27.269Z,98250.34
2022-12-11T12:27:00.504Z,98262.75
2022-12-11T12:29:42.455Z,98264.66
2022-12-11T12:32:18.013Z,98260.03
2022-12-11T12:34:57.545Z,98260.03
2022-12-11T12:37:45.220Z,98261.69
2022-12-11T12:40:19.410Z,98263.56
2022-12-11T12:42:55.462Z,98269.78
2022-12-11T12:45:28.924Z,98275.19
2022-12-11T12:47:57.284Z,98269.78
2022-12-11T12:50:26.759Z,98272.50
2022-12-11T12:52:55.378Z,98273.53
2022-12-11T12:55:24.318Z,98273.53
2022-12-11T12:57:54.596Z,98270.84
2022-12-11T13:00:33.611Z,98269.22
2022-12-11T13:03:13.999Z,98270.28
2022-12-11T13:05:43.797Z,98263.28
2022-12-11T13:08:12.532Z,98260.56
2022-12-11T13:10:42.362Z,98264.31
2022-12-11T13:13:29.713Z,98276.75
2022-12-11T13:16:07.029Z,98274.84
2022-12-11T13:18:37.317Z,98271.38
2022-12-11T13:21:28.775Z,98271.38
2022-12-11T13:24:06.964Z,98277.56
2022-12-11T13:26:34.071Z,98277.00
2022-12-11T13:29:00.934Z,98274.31
2022-12-11T13:31:34.766Z,98276.16
2022-12-11T13:34:16.159Z,98276.16
2022-12-11T13:36:47.592Z,98272.66
2022-12-11T13:39:18.541Z,98275.34
2022-12-11T13:41:48.776Z,98279.69
2022-12-11T13:44:21.919Z,98277.81
2022-12-11T13:46:51.049Z,98287.19
2022-12-11T13:49:25.886Z,98286.13
2022-12-11T13:51:55.792Z,98296.09
2022-12-11T13:54:22.717Z,98296.94
2022-12-11T13:57:00.002Z,98294.47
2022-12-11T13:59:30.026Z,98300.66
2022-12-11T14:02:01.151Z,98290.97
2022-12-11T14:04:30.720Z,98297.19
2022-12-11T14:06:58.861Z,98301.50
2022-12-11T14:09:27.866Z,98304.19
2022-12-11T14:11:57.376Z,98301.50
2022-12-11T14:14:30.518Z,98297.97
2022-12-11T14:16:57.488Z,98300.44
2022-12-11T14:19:25.226Z,98303.13
2022-12-11T14:21:58.425Z,98304.78
2022-12-11T14:24:25.658Z,98295.88
2022-12-11T14:26:53.905Z,98300.22
2022-12-11T14:29:29.798Z,98291.28
2022-12-11T14:32:01.982Z,98294.81
2022-12-11T14:34:34.346Z,98296.44
2022-12-11T14:37:06.454Z,98294.81
2022-12-11T14:39:38.133Z,98292.13
2022-12-11T14:42:11.655Z,98304.78
2022-12-11T14:44:48.460Z,98307.22
2022-12-11T14:47:18.873Z,98305.34
2022-12-11T14:49:51.321Z,98303.50
2022-12-11T14:52:23.897Z,98297.25
2022-12-11T14:54:56.987Z,98298.88
2022-12-11T14:57:28.592Z,98299.13
2022-12-11T14:59:57.126Z,98298.09
2022-12-11T15:02:30.137Z,98299.97
2022-12-11T15:05:05.451Z,98294.31
2022-12-11T15:07:34.163Z,98304.28
2022-12-11T15:10:01.041Z,98296.44
2022-12-11T15:12:28.067Z,98298.34
2022-12-11T15:14:58.273Z,98294.31
2022-12-11T15:17:26.297Z,98298.88
2022-12-11T15:19:55.390Z,98294.56
2022-12-11T15:22:26.182Z,98291.88
2022-12-11T15:24:55.130Z,98293.50
2022-12-11T15:27:30.928Z,98294.31
2022-12-11T15:29:58.044Z,98294.31
2022-12-11T15:32:25.603Z,98301.34
2022-12-11T15:34:54.138Z,98298.63
2022-12-11T15:37:23.135Z,98294.31
2022-12-11T15:39:50.353Z,98295.41
2022-12-11T15:42:24.514Z,98298.09
2022-12-11T15:44:52.486Z,98296.19
2022-12-11T15:47:22.766Z,98292.69
2022-12-11T15:49:50.024Z,98290.78
2022-12-11T15:52:16.918Z,98287.84
2022-12-11T15:54:43.776Z,98284.06
2022-12-11T15:57:16.957Z,98275.44
2022-12-11T15:59:48.728Z,98282.47
2022-12-11T16:02:16.365Z,98285.16
2022-12-11T16:04:43.367Z,98284.31
2022-12-11T16:07:16.722Z,98287.03
2022-12-11T16:09:43.601Z,98288.69
2022-12-11T16:12:10.890Z,98286.78
2022-12-11T16:14:39.213Z,98284.91
2022-12-11T16:17:09.165Z,98282.22
2022-12-11T16:19:37.230Z,98283.84
2022-12-11T16:22:04.819Z,98280.06
2022-12-11T16:24:33.022Z,98286.53
2022-12-11T16:26:59.917Z,98283.59
2022-12-11T16:29:26.918Z,98279.81
2022-12-11T16:31:53.937Z,98287.91
2022-12-11T16:34:26.909Z,98279.00
2022-12-11T16:36:54.916Z,98281.72
2022-12-11T16:39:21.776Z,98283.34
2022-12-11T16:41:48.915Z,98276.06
2022-12-11T16:44:19.776Z,98275.00
2022-12-11T16:46:46.766Z,98273.38
2022-12-11T16:49:13.975Z,98273.09
2022-12-11T16:51:42.662Z,98273.91
2022-12-11T16:54:09.619Z,98264.19
2022-12-11T16:56:36.754Z,98266.66
2022-12-11T16:59:05.706Z,98276.63
2022-12-11T17:01:33.142Z,98267.44
2022-12-11T17:04:00.553Z,98270.38
2022-12-11T17:06:27.908Z,98259.59
2022-12-11T17:08:56.197Z,98261.25
2022-12-11T17:11:27.451Z,98262.06
2022-12-11T17:13:55.333Z,98253.16
2022-12-11T17:16:22.469Z,98254.78
2022-12-11T17:18:49.321Z,98261.25
2022-12-11T17:21:17.951Z,98261.25
2022-12-11T17:23:45.571Z,98262.06
2022-12-11T17:26:14.621Z,98255.59
2022-12-11T17:28:41.479Z,98258.31
2022-12-11T17:31:09.833Z,98259.09
2022-12-11T17:33:38.073Z,98256.41
2022-12-11T17:36:07.283Z,98263.69
2022-12-11T17:38:34.855Z,98271.78
2022-12-11T17:41:05.963Z,98262.06
2022-12-11T17:43:34.347Z,98257.47
2022-12-11T17:46:01.305Z,98273.66
2022-12-11T17:48:28.281Z,98272.84
2022-12-11T17:50:55.281Z,98256.66
2022-12-11T17:53:23.621Z,98273.66
2022-12-11T17:55:51.918Z,98272.03
2022-12-11T17:58:21.750Z,98274.50
2022-12-11T18:00:51.957Z,98267.19
2022-12-11T18:03:19.131Z,98269.34
2022-12-11T18:05:48.459Z,98270.97
2022-12-11T18:08:16.650Z,98279.91
2022-12-11T18:10:44.078Z,98276.38
2022-12-11T18:13:11.337Z,98275.53
2022-12-11T18:15:39.134Z,98279.06
2022-12-11T18:18:08.003Z,98270.97
2022-12-11T18:20:35.478Z,98269.91
2022-12-11T18:23:02.692Z,98263.94
2022-12-11T18:25:29.757Z,98263.13
2022-12-11T18:27:57.729Z,98276.38
2022-12-11T18:30:25.401Z,98277.44
2022-12-11T18:32:52.544Z,98261.25
2022-12-11T18:35:20.815Z,98273.66
2022-12-11T18:37:47.700Z,98277.44
2022-12-11T18:40:14.746Z,98273.66
2022-12-11T18:42:41.757Z,98275.53
2022-12-11T18:45:10.214Z,98276.38
2022-12-11T18:47:37.454Z,98271.78
2022-12-11T18:50:08.005Z,98273.66
2022-12-11T18:52:36.781Z,98270.97
2022-12-11T18:55:04.405Z,98278.25
2022-12-11T18:57:31.436Z,98283.63
2022-12-11T19:00:02.451Z,98280.69
2022-12-11T19:02:29.444Z,98282.31
2022-12-11T19:04:56.340Z,98285.59
2022-12-11T19:07:23.267Z,98299.91
2022-12-11T19:09:51.653Z,98293.69
2022-12-11T19:12:18.614Z,98298.25
2022-12-11T19:14:45.500Z,98296.63
2022-12-11T19:17:12.469Z,98304.72
2022-12-11T19:19:39.398Z,98298.25
2022-12-11T19:22:06.313Z,98307.16
2022-12-11T19:24:33.149Z,98294.75
2022-12-11T19:27:01.690Z,98298.00
2022-12-11T19:29:32.552Z,98297.22
2022-12-11T19:32:01.473Z,98285.59
2022-12-11T19:34:28.519Z,98295.56
2022-12-11T19:36:55.761Z,98291.81
2022-12-11T19:39:22.701Z,98287.47
2022-12-11T19:41:49.610Z,98285.59
2022-12-11T19:44:18.086Z,98287.72
2022-12-11T19:46:45.207Z,98288.53
2022-12-11T19:49:12.562Z,98285.84
2022-12-11T19:51:41.417Z,98282.31
2022-12-11T19:54:11.325Z,98282.31
2022-12-11T19:56:38.480Z,98285.00
2022-12-11T19:59:08.478Z,98296.38
2022-12-11T20:01:38.278Z,98285.00
2022-12-11T20:04:07.178Z,98286.09
2022-12-11T20:06:36.910Z,98289.84
2022-12-11T20:09:05.216Z,98284.47
2022-12-11T20:11:33.147Z,98289.59
2022-12-11T20:14:00.407Z,98293.09
2022-12-11T20:16:46.326Z,98285.00
2022-12-11T20:19:16.195Z,98285.00
2022-12-11T20:21:43.341Z,98284.47
2022-12-11T20:24:11.040Z,98290.69
2022-12-11T20:26:38.185Z,98292.56
2022-12-11T20:29:07.412Z,98292.81
2022-12-11T20:31:36.444Z,98297.94
2022-12-11T20:34:04.118Z,98297.13
2022-12-11T20:36:32.665Z,98296.31
2022-12-11T20:38:59.863Z,98286.59
2022-12-11T20:41:27.635Z,98293.06
2022-12-11T20:43:54.518Z,98293.28
2022-12-11T20:46:24.108Z,98296.25
2022-12-11T20:48:51.315Z,98288.44
2022-12-11T20:51:25.708Z,98288.69
2022-12-11T20:53:59.312Z,98281.91
2022-12-11T20:56:28.786Z,98284.84
2022-12-11T20:58:56.383Z,98292.34
2022-12-11T21:01:26.654Z,98287.19
2022-12-11T21:03:53.664Z,98285.81
2022-12-11T21:06:23.119Z,98286.06
2022-12-11T21:08:50.046Z,98286.31
2022-12-11T21:11:19.631Z,98285.19
2022-12-11T21:13:50.121Z,98289.44
2022-12-11T21:16:18.507Z,98289.97
2022-12-11T21:18:46.628Z,98289.63
2022-12-11T21:21:14.462Z,98290.94
2022-12-11T21:23:41.412Z,98292.25
2022-12-11T21:26:08.371Z,98290.56
2022-12-11T21:28:36.651Z,98292.94
2022-12-11T21:31:06.414Z,98292.63
2022-12-11T21:33:33.344Z,98293.94
2022-12-11T21:36:00.993Z,98290.34
2022-12-11T21:38:28.679Z,98297.88
2022-12-11T21:40:56.014Z,98292.47
2022-12-11T21:43:23.564Z,98299.19
2022-12-11T21:46:00.806Z,98294.31
2022-12-11T21:48:28.829Z,98291.03
2022-12-11T21:50:56.131Z,98290.72
2022-12-11T21:53:23.031Z,98299.28
2022-12-11T21:55:49.961Z,98297.09
2022-12-11T21:58:16.838Z,98302.69
2022-12-11T22:00:45.634Z,98294.84
2022-12-11T22:03:15.278Z,98301.28
2022-12-11T22:05:42.194Z,98302.59
2022-12-11T22:08:09.095Z,98297.22
2022-12-11T22:10:36.080Z,98303.09
2022-12-11T22:13:02.944Z,98302.28
2022-12-11T22:15:29.894Z,98301.94
2022-12-11T22:17:56.729Z,98308.41
2022-12-11T22:20:25.124Z,98302.47
2022-12-11T22:22:51.978Z,98299.19
2022-12-11T22:25:18.915Z,98294.88
2022-12-11T22:27:45.753Z,98297.81
2022-12-11T22:30:13.357Z,98300.75
2022-12-11T22:32:40.305Z,98304.50
2022-12-11T22:35:07.934Z,98299.34
2022-12-11T22:37:36.181Z,98303.34
2022-12-11T22:40:03.685Z,98300.06
2022-12-11T22:42:30.580Z,98300.34
2022-12-11T22:44:57.432Z,98297.66
2022-12-11T22:47:24.281Z,98296.25
2022-12-11T22:49:51.200Z,98296.25
2022-12-11T22:52:18.088Z,98300.00
2022-12-11T22:54:46.410Z,98301.31
2022-12-11T22:57:14.330Z,98305.06
2022-12-11T22:59:41.388Z,98306.16
2022-12-11T23:02:08.258Z,98296.41
2022-12-11T23:04:35.241Z,98294.78
2022-12-11T23:07:02.089Z,98296.91
2022-12-11T23:09:28.988Z,98292.56
2022-12-11T23:11:58.547Z,98286.38
2022-12-11T23:14:25.965Z,98290.13
2022-12-11T23:16:52.900Z,98296.81
2022-12-11T23:19:25.267Z,98302.44
2022-12-11T23:21:53.180Z,98307.03
2022-12-11T23:24:20.154Z,98303.50
2022-12-11T23:26:48.158Z,98309.94
2022-12-11T23:29:16.429Z,98309.38
2022-12-11T23:31:43.338Z,98302.34
2022-12-11T23:34:10.267Z,98305.03
2022-12-11T23:36:37.732Z,98310.44
2022-12-11T23:39:05.022Z,98307.97
2022-12-11T23:41:31.944Z,98316.28
2022-12-11T23:43:59.140Z,98310.34
2022-12-11T23:46:27.554Z,98320.06
2022-12-11T23:48:55.079Z,98311.41
2022-12-11T23:51:23.915Z,98312.22
2022-12-11T23:53:51.668Z,98321.34
2022-12-11T23:56:21.790Z,98321.59
2022-12-11T23:58:49.102Z,98319.97
